sensor_id;sensor_type;location;lat;lon;timestamp;P1;durP1;ratioP1;P2;durP2;ratioP2
36797;SDS011;22748;8.426;99.512;2023-02-10T00:01:44;20.05;;;13.93;;
36797;SDS011;22748;8.426;99.512;2023-02-10T00:04:14;45.38;;;39.10;;
36797;SDS011;22748;8.426;99.512;2023-02-10T00:06:49;25.20;;;19.20;;
36797;SDS011;22748;8.426;99.512;2023-02-10T00:09:22;16.17;;;14.55;;
36797;SDS011;22748;8.426;99.512;2023-02-10T00:11:51;17.33;;;15.45;;
36797;SDS011;22748;8.426;99.512;2023-02-10T00:14:25;18.08;;;13.75;;
36797;SDS011;22748;8.426;99.512;2023-02-10T00:16:56;18.55;;;14.68;;
36797;SDS011;22748;8.426;99.512;2023-02-10T00:19:29;28.65;;;21.58;;
36797;SDS011;22748;8.426;99.512;2023-02-10T00:22:02;21.80;;;16.33;;
36797;SDS011;22748;8.426;99.512;2023-02-10T00:24:33;18.87;;;14.57;;
36797;SDS011;22748;8.426;99.512;2023-02-10T00:27:06;20.90;;;16.23;;
36797;SDS011;22748;8.426;99.512;2023-02-10T00:29:36;26.52;;;15.40;;
36797;SDS011;22748;8.426;99.512;2023-02-10T00:32:05;20.08;;;14.90;;
36797;SDS011;22748;8.426;99.512;2023-02-10T00:34:37;15.80;;;14.20;;
36797;SDS011;22748;8.426;99.512;2023-02-10T00:37:07;26.88;;;20.00;;
36797;SDS011;22748;8.426;99.512;2023-02-10T00:39:40;36.70;;;18.27;;
36797;SDS011;22748;8.426;99.512;2023-02-10T00:42:11;25.20;;;15.50;;
36797;SDS011;22748;8.426;99.512;2023-02-10T00:44:41;23.38;;;17.13;;
36797;SDS011;22748;8.426;99.512;2023-02-10T00:47:11;26.70;;;18.60;;
36797;SDS011;22748;8.426;99.512;2023-02-10T00:49:41;22.63;;;19.58;;
36797;SDS011;22748;8.426;99.512;2023-02-10T00:52:10;32.10;;;26.25;;
36797;SDS011;22748;8.426;99.512;2023-02-10T00:54:42;38.47;;;29.83;;
36797;SDS011;22748;8.426;99.512;2023-02-10T00:57:14;47.80;;;32.70;;
36797;SDS011;22748;8.426;99.512;2023-02-10T00:59:44;44.85;;;33.80;;
36797;SDS011;22748;8.426;99.512;2023-02-10T01:02:15;71.87;;;47.47;;
36797;SDS011;22748;8.426;99.512;2023-02-10T01:04:45;74.18;;;49.67;;
36797;SDS011;22748;8.426;99.512;2023-02-10T01:07:14;70.32;;;46.40;;
36797;SDS011;22748;8.426;99.512;2023-02-10T01:09:46;50.47;;;35.22;;
36797;SDS011;22748;8.426;99.512;2023-02-10T01:12:20;57.35;;;39.22;;
36797;SDS011;22748;8.426;99.512;2023-02-10T01:14:50;49.00;;;33.08;;
36797;SDS011;22748;8.426;99.512;2023-02-10T01:17:19;35.60;;;28.27;;
36797;SDS011;22748;8.426;99.512;2023-02-10T01:19:51;94.53;;;27.92;;
36797;SDS011;22748;8.426;99.512;2023-02-10T01:22:22;94.55;;;46.25;;
36797;SDS011;22748;8.426;99.512;2023-02-10T01:24:54;41.83;;;28.38;;
36797;SDS011;22748;8.426;99.512;2023-02-10T01:29:54;52.55;;;34.53;;
36797;SDS011;22748;8.426;99.512;2023-02-10T01:32:24;55.20;;;35.92;;
36797;SDS011;22748;8.426;99.512;2023-02-10T01:34:56;47.97;;;35.17;;
36797;SDS011;22748;8.426;99.512;2023-02-10T01:37:26;43.72;;;28.45;;
36797;SDS011;22748;8.426;99.512;2023-02-10T01:39:59;42.10;;;26.92;;
36797;SDS011;22748;8.426;99.512;2023-02-10T01:42:31;43.47;;;30.63;;
36797;SDS011;22748;8.426;99.512;2023-02-10T01:47:49;20.75;;;15.43;;
36797;SDS011;22748;8.426;99.512;2023-02-10T01:50:22;21.88;;;16.20;;
36797;SDS011;22748;8.426;99.512;2023-02-10T01:52:55;19.05;;;17.08;;
36797;SDS011;22748;8.426;99.512;2023-02-10T01:55:30;23.13;;;17.02;;
36797;SDS011;22748;8.426;99.512;2023-02-10T01:58:01;23.13;;;17.05;;
36797;SDS011;22748;8.426;99.512;2023-02-10T02:00:32;20.52;;;16.13;;
36797;SDS011;22748;8.426;99.512;2023-02-10T02:03:05;30.92;;;18.60;;
36797;SDS011;22748;8.426;99.512;2023-02-10T02:05:37;26.75;;;18.38;;
36797;SDS011;22748;8.426;99.512;2023-02-10T02:08:09;23.27;;;14.93;;
36797;SDS011;22748;8.426;99.512;2023-02-10T02:13:50;18.40;;;12.77;;
36797;SDS011;22748;8.426;99.512;2023-02-10T02:16:50;18.98;;;11.70;;
36797;SDS011;22748;8.426;99.512;2023-02-10T02:19:37;14.02;;;11.70;;
36797;SDS011;22748;8.426;99.512;2023-02-10T02:22:53;15.55;;;12.45;;
36797;SDS011;22748;8.426;99.512;2023-02-10T02:25:49;14.75;;;11.43;;
36797;SDS011;22748;8.426;99.512;2023-02-10T02:28:44;15.68;;;11.80;;
36797;SDS011;22748;8.426;99.512;2023-02-10T02:34:17;16.33;;;11.30;;
36797;SDS011;22748;8.426;99.512;2023-02-10T02:36:55;19.25;;;10.20;;
36797;SDS011;22748;8.426;99.512;2023-02-10T02:39:27;12.13;;;9.25;;
36797;SDS011;22748;8.426;99.512;2023-02-10T02:44:46;11.15;;;8.90;;
36797;SDS011;22748;8.426;99.512;2023-02-10T02:47:21;12.10;;;8.55;;
36797;SDS011;22748;8.426;99.512;2023-02-10T02:50:06;11.18;;;8.20;;
36797;SDS011;22748;8.426;99.512;2023-02-10T02:52:52;11.15;;;8.40;;
36797;SDS011;22748;8.426;99.512;2023-02-10T02:55:35;16.00;;;9.32;;
36797;SDS011;22748;8.426;99.512;2023-02-10T02:58:13;11.93;;;10.10;;
36797;SDS011;22748;8.426;99.512;2023-02-10T03:00:47;13.27;;;9.82;;
36797;SDS011;22748;8.426;99.512;2023-02-10T03:03:20;13.93;;;10.18;;
36797;SDS011;22748;8.426;99.512;2023-02-10T03:08:20;21.67;;;9.68;;
36797;SDS011;22748;8.426;99.512;2023-02-10T03:10:50;12.15;;;9.40;;
36797;SDS011;22748;8.426;99.512;2023-02-10T03:13:20;13.07;;;9.80;;
36797;SDS011;22748;8.426;99.512;2023-02-10T03:15:52;12.75;;;9.05;;
36797;SDS011;22748;8.426;99.512;2023-02-10T03:18:23;13.75;;;9.75;;
36797;SDS011;22748;8.426;99.512;2023-02-10T03:20:53;14.57;;;9.80;;
36797;SDS011;22748;8.426;99.512;2023-02-10T03:23:23;12.85;;;8.95;;
36797;SDS011;22748;8.426;99.512;2023-02-10T03:25:52;12.20;;;8.93;;
36797;SDS011;22748;8.426;99.512;2023-02-10T03:28:22;18.15;;;11.85;;
36797;SDS011;22748;8.426;99.512;2023-02-10T03:30:51;15.63;;;8.52;;
36797;SDS011;22748;8.426;99.512;2023-02-10T03:33:24;15.43;;;8.50;;
36797;SDS011;22748;8.426;99.512;2023-02-10T03:35:55;12.35;;;8.15;;
36797;SDS011;22748;8.426;99.512;2023-02-10T03:38:29;13.13;;;8.90;;
36797;SDS011;22748;8.426;99.512;2023-02-10T03:40:59;10.73;;;7.53;;
36797;SDS011;22748;8.426;99.512;2023-02-10T03:43:29;9.93;;;7.55;;
36797;SDS011;22748;8.426;99.512;2023-02-10T03:46:00;11.88;;;6.95;;
36797;SDS011;22748;8.426;99.512;2023-02-10T03:48:33;10.43;;;8.93;;
36797;SDS011;22748;8.426;99.512;2023-02-10T03:51:04;11.90;;;10.75;;
36797;SDS011;22748;8.426;99.512;2023-02-10T03:53:35;9.20;;;7.57;;
36797;SDS011;22748;8.426;99.512;2023-02-10T03:56:05;8.80;;;5.88;;
36797;SDS011;22748;8.426;99.512;2023-02-10T03:58:35;7.03;;;5.78;;
36797;SDS011;22748;8.426;99.512;2023-02-10T04:01:08;10.93;;;6.68;;
36797;SDS011;22748;8.426;99.512;2023-02-10T04:03:41;6.85;;;6.13;;
36797;SDS011;22748;8.426;99.512;2023-02-10T04:06:11;10.98;;;6.15;;
36797;SDS011;22748;8.426;99.512;2023-02-10T04:08:42;7.30;;;5.53;;
36797;SDS011;22748;8.426;99.512;2023-02-10T04:11:13;5.80;;;5.25;;
36797;SDS011;22748;8.426;99.512;2023-02-10T04:13:43;8.27;;;6.00;;
36797;SDS011;22748;8.426;99.512;2023-02-10T04:16:14;8.00;;;5.80;;
36797;SDS011;22748;8.426;99.512;2023-02-10T04:18:48;9.68;;;6.00;;
36797;SDS011;22748;8.426;99.512;2023-02-10T04:21:17;8.77;;;6.15;;
36797;SDS011;22748;8.426;99.512;2023-02-10T04:23:47;6.10;;;5.20;;
36797;SDS011;22748;8.426;99.512;2023-02-10T04:26:20;6.60;;;5.20;;
36797;SDS011;22748;8.426;99.512;2023-02-10T04:28:49;8.98;;;4.97;;
36797;SDS011;22748;8.426;99.512;2023-02-10T04:31:20;7.72;;;5.63;;
36797;SDS011;22748;8.426;99.512;2023-02-10T04:33:51;10.40;;;6.07;;
36797;SDS011;22748;8.426;99.512;2023-02-10T04:36:20;8.75;;;5.53;;
36797;SDS011;22748;8.426;99.512;2023-02-10T04:38:50;8.68;;;5.65;;
36797;SDS011;22748;8.426;99.512;2023-02-10T04:41:19;9.80;;;6.22;;
36797;SDS011;22748;8.426;99.512;2023-02-10T04:43:50;7.00;;;5.10;;
36797;SDS011;22748;8.426;99.512;2023-02-10T04:46:19;8.52;;;4.97;;
36797;SDS011;22748;8.426;99.512;2023-02-10T04:48:48;7.75;;;4.82;;
36797;SDS011;22748;8.426;99.512;2023-02-10T04:51:19;5.80;;;4.47;;
36797;SDS011;22748;8.426;99.512;2023-02-10T04:53:49;4.63;;;3.60;;
36797;SDS011;22748;8.426;99.512;2023-02-10T04:56:19;5.60;;;4.60;;
36797;SDS011;22748;8.426;99.512;2023-02-10T04:58:49;6.70;;;4.25;;
36797;SDS011;22748;8.426;99.512;2023-02-10T05:01:19;4.55;;;3.90;;
36797;SDS011;22748;8.426;99.512;2023-02-10T05:03:51;6.90;;;4.18;;
36797;SDS011;22748;8.426;99.512;2023-02-10T05:06:21;5.82;;;4.15;;
36797;SDS011;22748;8.426;99.512;2023-02-10T05:08:51;5.20;;;3.72;;
36797;SDS011;22748;8.426;99.512;2023-02-10T05:11:21;5.25;;;3.85;;
36797;SDS011;22748;8.426;99.512;2023-02-10T05:13:52;6.05;;;3.95;;
36797;SDS011;22748;8.426;99.512;2023-02-10T05:16:22;4.82;;;3.85;;
36797;SDS011;22748;8.426;99.512;2023-02-10T05:18:54;6.88;;;3.92;;
36797;SDS011;22748;8.426;99.512;2023-02-10T05:21:24;5.05;;;3.45;;
36797;SDS011;22748;8.426;99.512;2023-02-10T05:23:57;7.18;;;3.97;;
36797;SDS011;22748;8.426;99.512;2023-02-10T05:26:29;8.88;;;3.75;;
36797;SDS011;22748;8.426;99.512;2023-02-10T05:29:00;8.05;;;5.00;;
36797;SDS011;22748;8.426;99.512;2023-02-10T05:31:30;8.88;;;3.88;;
36797;SDS011;22748;8.426;99.512;2023-02-10T05:34:01;6.30;;;3.50;;
36797;SDS011;22748;8.426;99.512;2023-02-10T05:36:31;5.97;;;4.05;;
36797;SDS011;22748;8.426;99.512;2023-02-10T05:39:03;5.03;;;3.50;;
36797;SDS011;22748;8.426;99.512;2023-02-10T05:41:46;4.72;;;4.15;;
36797;SDS011;22748;8.426;99.512;2023-02-10T05:44:16;12.93;;;3.77;;
36797;SDS011;22748;8.426;99.512;2023-02-10T05:46:47;6.72;;;3.70;;
36797;SDS011;22748;8.426;99.512;2023-02-10T05:49:18;4.15;;;3.28;;
36797;SDS011;22748;8.426;99.512;2023-02-10T05:54:17;4.13;;;3.58;;
36797;SDS011;22748;8.426;99.512;2023-02-10T05:56:48;5.80;;;3.35;;
36797;SDS011;22748;8.426;99.512;2023-02-10T05:59:19;5.53;;;3.47;;
36797;SDS011;22748;8.426;99.512;2023-02-10T06:01:50;5.45;;;3.65;;
36797;SDS011;22748;8.426;99.512;2023-02-10T06:04:25;5.43;;;3.60;;
36797;SDS011;22748;8.426;99.512;2023-02-10T06:06:56;6.22;;;3.55;;
36797;SDS011;22748;8.426;99.512;2023-02-10T06:09:26;8.18;;;4.25;;
36797;SDS011;22748;8.426;99.512;2023-02-10T06:11:55;9.13;;;4.32;;
36797;SDS011;22748;8.426;99.512;2023-02-10T06:14:25;10.98;;;3.80;;
36797;SDS011;22748;8.426;99.512;2023-02-10T06:16:55;5.82;;;3.75;;
36797;SDS011;22748;8.426;99.512;2023-02-10T06:19:28;4.85;;;3.08;;
36797;SDS011;22748;8.426;99.512;2023-02-10T06:21:58;4.65;;;3.55;;
36797;SDS011;22748;8.426;99.512;2023-02-10T06:24:30;5.60;;;3.60;;
36797;SDS011;22748;8.426;99.512;2023-02-10T06:27:04;4.28;;;2.85;;
36797;SDS011;22748;8.426;99.512;2023-02-10T06:29:34;6.22;;;3.63;;
36797;SDS011;22748;8.426;99.512;2023-02-10T06:32:05;5.28;;;2.95;;
36797;SDS011;22748;8.426;99.512;2023-02-10T06:34:36;4.35;;;3.72;;
36797;SDS011;22748;8.426;99.512;2023-02-10T06:37:07;4.35;;;3.20;;
36797;SDS011;22748;8.426;99.512;2023-02-10T06:39:37;3.85;;;2.88;;
36797;SDS011;22748;8.426;99.512;2023-02-10T06:42:08;5.22;;;3.15;;
36797;SDS011;22748;8.426;99.512;2023-02-10T06:44:37;31.17;;;5.60;;
36797;SDS011;22748;8.426;99.512;2023-02-10T06:47:07;7.07;;;3.35;;
36797;SDS011;22748;8.426;99.512;2023-02-10T06:49:39;4.10;;;2.88;;
36797;SDS011;22748;8.426;99.512;2023-02-10T06:52:09;5.10;;;3.28;;
36797;SDS011;22748;8.426;99.512;2023-02-10T06:54:38;7.60;;;2.90;;
36797;SDS011;22748;8.426;99.512;2023-02-10T06:57:11;5.18;;;3.25;;
36797;SDS011;22748;8.426;99.512;2023-02-10T06:59:43;5.97;;;2.80;;
36797;SDS011;22748;8.426;99.512;2023-02-10T07:02:12;5.68;;;3.70;;
36797;SDS011;22748;8.426;99.512;2023-02-10T07:04:44;5.45;;;3.70;;
36797;SDS011;22748;8.426;99.512;2023-02-10T07:07:13;5.32;;;3.58;;
36797;SDS011;22748;8.426;99.512;2023-02-10T07:09:44;5.57;;;2.97;;
36797;SDS011;22748;8.426;99.512;2023-02-10T07:12:15;6.00;;;3.28;;
36797;SDS011;22748;8.426;99.512;2023-02-10T07:14:44;8.48;;;3.15;;
36797;SDS011;22748;8.426;99.512;2023-02-10T07:17:14;6.60;;;2.83;;
36797;SDS011;22748;8.426;99.512;2023-02-10T07:19:48;4.70;;;2.80;;
36797;SDS011;22748;8.426;99.512;2023-02-10T07:22:19;5.05;;;3.22;;
36797;SDS011;22748;8.426;99.512;2023-02-10T07:24:49;4.40;;;2.72;;
36797;SDS011;22748;8.426;99.512;2023-02-10T07:27:20;6.30;;;2.50;;
36797;SDS011;22748;8.426;99.512;2023-02-10T07:29:51;3.30;;;2.28;;
36797;SDS011;22748;8.426;99.512;2023-02-10T07:32:20;7.35;;;2.70;;
36797;SDS011;22748;8.426;99.512;2023-02-10T07:34:52;5.35;;;2.55;;
36797;SDS011;22748;8.426;99.512;2023-02-10T07:37:22;5.68;;;3.17;;
36797;SDS011;22748;8.426;99.512;2023-02-10T07:39:53;4.45;;;2.60;;
36797;SDS011;22748;8.426;99.512;2023-02-10T07:42:23;4.43;;;2.58;;
36797;SDS011;22748;8.426;99.512;2023-02-10T07:44:54;4.90;;;2.60;;
36797;SDS011;22748;8.426;99.512;2023-02-10T07:47:23;4.35;;;2.55;;
36797;SDS011;22748;8.426;99.512;2023-02-10T07:49:55;3.38;;;2.47;;
36797;SDS011;22748;8.426;99.512;2023-02-10T07:52:25;4.63;;;2.70;;
36797;SDS011;22748;8.426;99.512;2023-02-10T07:54:56;3.67;;;2.33;;
36797;SDS011;22748;8.426;99.512;2023-02-10T07:57:28;6.05;;;2.88;;
36797;SDS011;22748;8.426;99.512;2023-02-10T07:59:58;5.70;;;2.83;;
36797;SDS011;22748;8.426;99.512;2023-02-10T08:02:28;4.82;;;2.63;;
36797;SDS011;22748;8.426;99.512;2023-02-10T08:05:00;4.03;;;2.50;;
36797;SDS011;22748;8.426;99.512;2023-02-10T08:07:29;5.28;;;2.20;;
36797;SDS011;22748;8.426;99.512;2023-02-10T08:09:58;4.32;;;2.60;;
36797;SDS011;22748;8.426;99.512;2023-02-10T08:12:28;3.95;;;2.40;;
36797;SDS011;22748;8.426;99.512;2023-02-10T08:14:58;3.75;;;2.60;;
36797;SDS011;22748;8.426;99.512;2023-02-10T08:17:28;6.80;;;2.88;;
36797;SDS011;22748;8.426;99.512;2023-02-10T08:19:59;5.38;;;2.22;;
36797;SDS011;22748;8.426;99.512;2023-02-10T08:22:29;6.18;;;2.95;;
36797;SDS011;22748;8.426;99.512;2023-02-10T08:25:00;3.67;;;2.72;;
36797;SDS011;22748;8.426;99.512;2023-02-10T08:27:33;4.85;;;2.97;;
36797;SDS011;22748;8.426;99.512;2023-02-10T08:30:05;4.97;;;2.75;;
36797;SDS011;22748;8.426;99.512;2023-02-10T08:35:07;4.43;;;2.55;;
36797;SDS011;22748;8.426;99.512;2023-02-10T08:37:38;5.13;;;2.85;;
36797;SDS011;22748;8.426;99.512;2023-02-10T08:40:07;4.07;;;2.47;;
36797;SDS011;22748;8.426;99.512;2023-02-10T08:42:38;5.50;;;2.50;;
36797;SDS011;22748;8.426;99.512;2023-02-10T08:45:08;5.97;;;2.63;;
36797;SDS011;22748;8.426;99.512;2023-02-10T08:47:39;5.13;;;2.70;;
36797;SDS011;22748;8.426;99.512;2023-02-10T08:50:10;5.30;;;2.42;;
36797;SDS011;22748;8.426;99.512;2023-02-10T08:52:40;6.40;;;2.95;;
36797;SDS011;22748;8.426;99.512;2023-02-10T08:55:10;6.25;;;2.40;;
36797;SDS011;22748;8.426;99.512;2023-02-10T08:57:41;4.82;;;2.47;;
36797;SDS011;22748;8.426;99.512;2023-02-10T09:00:12;6.07;;;3.15;;
36797;SDS011;22748;8.426;99.512;2023-02-10T09:02:43;5.50;;;2.63;;
36797;SDS011;22748;8.426;99.512;2023-02-10T09:05:16;5.80;;;2.92;;
36797;SDS011;22748;8.426;99.512;2023-02-10T09:07:47;6.55;;;2.95;;
36797;SDS011;22748;8.426;99.512;2023-02-10T09:10:17;4.50;;;2.70;;
36797;SDS011;22748;8.426;99.512;2023-02-10T09:12:47;4.40;;;2.67;;
36797;SDS011;22748;8.426;99.512;2023-02-10T09:15:17;3.83;;;2.47;;
36797;SDS011;22748;8.426;99.512;2023-02-10T09:17:48;6.80;;;2.60;;
36797;SDS011;22748;8.426;99.512;2023-02-10T09:20:20;4.07;;;3.00;;
36797;SDS011;22748;8.426;99.512;2023-02-10T09:22:49;5.40;;;2.80;;
36797;SDS011;22748;8.426;99.512;2023-02-10T09:25:23;4.13;;;2.67;;
36797;SDS011;22748;8.426;99.512;2023-02-10T09:27:53;4.68;;;2.70;;
36797;SDS011;22748;8.426;99.512;2023-02-10T09:30:23;5.03;;;2.50;;
36797;SDS011;22748;8.426;99.512;2023-02-10T09:35:28;5.35;;;2.35;;
36797;SDS011;22748;8.426;99.512;2023-02-10T09:38:00;4.45;;;2.83;;
36797;SDS011;22748;8.426;99.512;2023-02-10T09:40:31;6.75;;;3.20;;
36797;SDS011;22748;8.426;99.512;2023-02-10T09:43:11;7.35;;;3.22;;
36797;SDS011;22748;8.426;99.512;2023-02-10T09:45:55;5.70;;;2.83;;
36797;SDS011;22748;8.426;99.512;2023-02-10T09:48:31;7.40;;;2.60;;
36797;SDS011;22748;8.426;99.512;2023-02-10T09:51:18;4.45;;;2.47;;
36797;SDS011;22748;8.426;99.512;2023-02-10T09:54:07;6.95;;;4.28;;
36797;SDS011;22748;8.426;99.512;2023-02-10T09:56:41;4.07;;;2.50;;
36797;SDS011;22748;8.426;99.512;2023-02-10T09:59:12;4.30;;;2.42;;
36797;SDS011;22748;8.426;99.512;2023-02-10T10:01:47;6.50;;;2.45;;
36797;SDS011;22748;8.426;99.512;2023-02-10T10:04:21;4.97;;;3.25;;
36797;SDS011;22748;8.426;99.512;2023-02-10T10:06:55;5.18;;;3.00;;
36797;SDS011;22748;8.426;99.512;2023-02-10T10:09:35;4.22;;;2.70;;
36797;SDS011;22748;8.426;99.512;2023-02-10T10:12:10;5.15;;;2.95;;
36797;SDS011;22748;8.426;99.512;2023-02-10T10:14:43;4.80;;;2.55;;
36797;SDS011;22748;8.426;99.512;2023-02-10T10:20:23;6.28;;;2.92;;
36797;SDS011;22748;8.426;99.512;2023-02-10T10:23:19;5.88;;;2.97;;
36797;SDS011;22748;8.426;99.512;2023-02-10T10:26:09;4.50;;;2.80;;
36797;SDS011;22748;8.426;99.512;2023-02-10T10:28:52;4.35;;;2.95;;
36797;SDS011;22748;8.426;99.512;2023-02-10T10:31:37;7.57;;;4.20;;
36797;SDS011;22748;8.426;99.512;2023-02-10T10:34:12;8.23;;;3.60;;
36797;SDS011;22748;8.426;99.512;2023-02-10T10:36:45;6.03;;;3.35;;
36797;SDS011;22748;8.426;99.512;2023-02-10T10:39:22;6.03;;;3.55;;
36797;SDS011;22748;8.426;99.512;2023-02-10T10:41:57;6.03;;;3.53;;
36797;SDS011;22748;8.426;99.512;2023-02-10T10:44:31;8.35;;;4.10;;
36797;SDS011;22748;8.426;99.512;2023-02-10T10:47:04;7.85;;;3.50;;
36797;SDS011;22748;8.426;99.512;2023-02-10T10:49:40;6.32;;;3.58;;
36797;SDS011;22748;8.426;99.512;2023-02-10T10:52:17;5.90;;;3.70;;
36797;SDS011;22748;8.426;99.512;2023-02-10T10:54:58;6.57;;;4.10;;
36797;SDS011;22748;8.426;99.512;2023-02-10T10:57:30;6.35;;;3.50;;
36797;SDS011;22748;8.426;99.512;2023-02-10T11:00:04;5.32;;;3.78;;
36797;SDS011;22748;8.426;99.512;2023-02-10T11:02:51;7.03;;;4.40;;
36797;SDS011;22748;8.426;99.512;2023-02-10T11:05:27;9.07;;;4.43;;
36797;SDS011;22748;8.426;99.512;2023-02-10T11:08:00;7.10;;;4.75;;
36797;SDS011;22748;8.426;99.512;2023-02-10T11:10:33;6.60;;;4.15;;
36797;SDS011;22748;8.426;99.512;2023-02-10T11:13:17;5.50;;;4.22;;
36797;SDS011;22748;8.426;99.512;2023-02-10T11:15:58;7.63;;;4.50;;
36797;SDS011;22748;8.426;99.512;2023-02-10T11:18:32;11.00;;;4.38;;
36797;SDS011;22748;8.426;99.512;2023-02-10T11:21:04;7.65;;;4.80;;
36797;SDS011;22748;8.426;99.512;2023-02-10T11:23:46;7.65;;;4.68;;
36797;SDS011;22748;8.426;99.512;2023-02-10T11:26:20;8.43;;;5.20;;
36797;SDS011;22748;8.426;99.512;2023-02-10T11:28:55;10.35;;;6.60;;
36797;SDS011;22748;8.426;99.512;2023-02-10T11:31:40;16.45;;;10.55;;
36797;SDS011;22748;8.426;99.512;2023-02-10T11:34:16;17.10;;;10.77;;
36797;SDS011;22748;8.426;99.512;2023-02-10T11:36:51;10.93;;;7.20;;
36797;SDS011;22748;8.426;99.512;2023-02-10T11:39:25;18.30;;;13.02;;
36797;SDS011;22748;8.426;99.512;2023-02-10T11:42:09;13.70;;;8.80;;
36797;SDS011;22748;8.426;99.512;2023-02-10T11:44:53;13.18;;;8.90;;
36797;SDS011;22748;8.426;99.512;2023-02-10T11:47:24;20.00;;;10.45;;
36797;SDS011;22748;8.426;99.512;2023-02-10T11:49:55;18.30;;;11.95;;
36797;SDS011;22748;8.426;99.512;2023-02-10T11:54:56;23.42;;;12.45;;
36797;SDS011;22748;8.426;99.512;2023-02-10T11:57:30;18.98;;;11.80;;
36797;SDS011;22748;8.426;99.512;2023-02-10T12:00:26;23.15;;;12.30;;
36797;SDS011;22748;8.426;99.512;2023-02-10T12:06:05;24.80;;;14.60;;
36797;SDS011;22748;8.426;99.512;2023-02-10T12:08:39;36.25;;;21.67;;
36797;SDS011;22748;8.426;99.512;2023-02-10T12:11:27;44.58;;;25.70;;
36797;SDS011;22748;8.426;99.512;2023-02-10T12:14:28;44.85;;;26.58;;
36797;SDS011;22748;8.426;99.512;2023-02-10T12:17:22;45.47;;;24.55;;
36797;SDS011;22748;8.426;99.512;2023-02-10T12:20:01;69.43;;;36.20;;
36797;SDS011;22748;8.426;99.512;2023-02-10T12:22:44;71.05;;;38.65;;
36797;SDS011;22748;8.426;99.512;2023-02-10T12:25:40;63.47;;;36.63;;
36797;SDS011;22748;8.426;99.512;2023-02-10T12:28:22;58.95;;;35.05;;
36797;SDS011;22748;8.426;99.512;2023-02-10T12:31:10;50.88;;;31.40;;
36797;SDS011;22748;8.426;99.512;2023-02-10T12:33:51;45.45;;;27.73;;
36797;SDS011;22748;8.426;99.512;2023-02-10T12:36:40;42.28;;;27.67;;
36797;SDS011;22748;8.426;99.512;2023-02-10T12:39:19;43.25;;;27.50;;
36797;SDS011;22748;8.426;99.512;2023-02-10T12:41:59;47.22;;;31.73;;
36797;SDS011;22748;8.426;99.512;2023-02-10T12:44:45;49.22;;;32.55;;
36797;SDS011;22748;8.426;99.512;2023-02-10T12:47:27;42.90;;;29.75;;
36797;SDS011;22748;8.426;99.512;2023-02-10T12:53:08;42.30;;;27.92;;
36797;SDS011;22748;8.426;99.512;2023-02-10T12:55:44;59.53;;;40.45;;
36797;SDS011;22748;8.426;99.512;2023-02-10T12:58:21;68.90;;;44.15;;
36797;SDS011;22748;8.426;99.512;2023-02-10T13:00:57;81.93;;;55.30;;
36797;SDS011;22748;8.426;99.512;2023-02-10T13:03:36;83.47;;;61.17;;
36797;SDS011;22748;8.426;99.512;2023-02-10T13:06:13;72.88;;;52.85;;
36797;SDS011;22748;8.426;99.512;2023-02-10T13:08:55;67.53;;;49.50;;
36797;SDS011;22748;8.426;99.512;2023-02-10T13:11:34;72.00;;;53.40;;
36797;SDS011;22748;8.426;99.512;2023-02-10T13:14:13;73.38;;;53.35;;
36797;SDS011;22748;8.426;99.512;2023-02-10T13:16:53;75.07;;;50.72;;
36797;SDS011;22748;8.426;99.512;2023-02-10T13:19:27;62.90;;;43.83;;
36797;SDS011;22748;8.426;99.512;2023-02-10T13:22:10;56.22;;;40.20;;
36797;SDS011;22748;8.426;99.512;2023-02-10T13:24:48;60.15;;;40.83;;
36797;SDS011;22748;8.426;99.512;2023-02-10T13:27:31;52.45;;;38.30;;
36797;SDS011;22748;8.426;99.512;2023-02-10T13:30:17;56.92;;;39.22;;
36797;SDS011;22748;8.426;99.512;2023-02-10T13:33:13;57.35;;;39.60;;
36797;SDS011;22748;8.426;99.512;2023-02-10T13:35:54;50.28;;;31.90;;
36797;SDS011;22748;8.426;99.512;2023-02-10T13:38:27;43.80;;;31.00;;
36797;SDS011;22748;8.426;99.512;2023-02-10T13:41:00;37.38;;;22.38;;
36797;SDS011;22748;8.426;99.512;2023-02-10T13:43:45;37.17;;;24.13;;
36797;SDS011;22748;8.426;99.512;2023-02-10T13:46:26;25.33;;;18.65;;
36797;SDS011;22748;8.426;99.512;2023-02-10T13:49:03;28.17;;;18.95;;
36797;SDS011;22748;8.426;99.512;2023-02-10T13:51:49;46.53;;;26.77;;
36797;SDS011;22748;8.426;99.512;2023-02-10T13:54:28;41.40;;;27.35;;
36797;SDS011;22748;8.426;99.512;2023-02-10T13:57:01;46.35;;;28.60;;
36797;SDS011;22748;8.426;99.512;2023-02-10T13:59:38;41.35;;;28.23;;
36797;SDS011;22748;8.426;99.512;2023-02-10T14:02:14;40.45;;;26.80;;
36797;SDS011;22748;8.426;99.512;2023-02-10T14:04:52;34.92;;;24.92;;
36797;SDS011;22748;8.426;99.512;2023-02-10T14:07:37;30.02;;;20.73;;
36797;SDS011;22748;8.426;99.512;2023-02-10T14:12:59;28.75;;;22.45;;
36797;SDS011;22748;8.426;99.512;2023-02-10T14:15:31;37.00;;;23.40;;
36797;SDS011;22748;8.426;99.512;2023-02-10T14:18:04;30.67;;;21.45;;
36797;SDS011;22748;8.426;99.512;2023-02-10T14:20:54;31.20;;;20.23;;
36797;SDS011;22748;8.426;99.512;2023-02-10T14:23:29;26.45;;;19.00;;
36797;SDS011;22748;8.426;99.512;2023-02-10T14:26:03;29.40;;;21.02;;
36797;SDS011;22748;8.426;99.512;2023-02-10T14:28:35;27.05;;;21.50;;
36797;SDS011;22748;8.426;99.512;2023-02-10T14:31:11;30.42;;;22.65;;
36797;SDS011;22748;8.426;99.512;2023-02-10T14:33:52;31.65;;;20.85;;
36797;SDS011;22748;8.426;99.512;2023-02-10T14:36:26;28.25;;;20.20;;
36797;SDS011;22748;8.426;99.512;2023-02-10T14:39:01;24.88;;;18.65;;
36797;SDS011;22748;8.426;99.512;2023-02-10T14:41:35;26.45;;;17.90;;
36797;SDS011;22748;8.426;99.512;2023-02-10T14:44:13;26.27;;;17.20;;
36797;SDS011;22748;8.426;99.512;2023-02-10T14:46:50;27.00;;;19.15;;
36797;SDS011;22748;8.426;99.512;2023-02-10T14:49:22;23.38;;;18.38;;
36797;SDS011;22748;8.426;99.512;2023-02-10T14:51:57;33.60;;;20.92;;
36797;SDS011;22748;8.426;99.512;2023-02-10T14:54:37;27.27;;;21.27;;
36797;SDS011;22748;8.426;99.512;2023-02-10T14:57:10;29.20;;;19.98;;
36797;SDS011;22748;8.426;99.512;2023-02-10T14:59:42;27.00;;;19.65;;
36797;SDS011;22748;8.426;99.512;2023-02-10T15:02:16;23.25;;;17.70;;
36797;SDS011;22748;8.426;99.512;2023-02-10T15:04:49;29.83;;;19.63;;
36797;SDS011;22748;8.426;99.512;2023-02-10T15:07:23;26.98;;;17.98;;
36797;SDS011;22748;8.426;99.512;2023-02-10T15:10:03;24.23;;;17.95;;
36797;SDS011;22748;8.426;99.512;2023-02-10T15:12:43;29.63;;;19.50;;
36797;SDS011;22748;8.426;99.512;2023-02-10T15:15:22;26.48;;;18.50;;
36797;SDS011;22748;8.426;99.512;2023-02-10T15:17:57;28.40;;;19.20;;
36797;SDS011;22748;8.426;99.512;2023-02-10T15:20:36;26.57;;;17.17;;
36797;SDS011;22748;8.426;99.512;2023-02-10T15:23:12;24.45;;;18.23;;
36797;SDS011;22748;8.426;99.512;2023-02-10T15:25:57;22.15;;;16.55;;
36797;SDS011;22748;8.426;99.512;2023-02-10T15:31:24;24.38;;;17.58;;
36797;SDS011;22748;8.426;99.512;2023-02-10T15:33:56;25.67;;;18.42;;
36797;SDS011;22748;8.426;99.512;2023-02-10T15:36:32;26.58;;;18.10;;
36797;SDS011;22748;8.426;99.512;2023-02-10T15:39:17;28.42;;;17.70;;
36797;SDS011;22748;8.426;99.512;2023-02-10T15:45:02;27.27;;;18.35;;
36797;SDS011;22748;8.426;99.512;2023-02-10T15:47:45;26.95;;;16.20;;
36797;SDS011;22748;8.426;99.512;2023-02-10T15:50:17;21.27;;;14.95;;
36797;SDS011;22748;8.426;99.512;2023-02-10T15:52:49;24.33;;;16.33;;
36797;SDS011;22748;8.426;99.512;2023-02-10T15:55:23;19.98;;;15.05;;
36797;SDS011;22748;8.426;99.512;2023-02-10T15:57:56;24.70;;;15.23;;
36797;SDS011;22748;8.426;99.512;2023-02-10T16:00:32;21.10;;;14.35;;
36797;SDS011;22748;8.426;99.512;2023-02-10T16:03:05;24.80;;;15.52;;